sensor_id;sensor_type;location;lat;lon;timestamp;P1;durP1;ratioP1;P2;durP2;ratioP2
60917;SDS011;46792;38.854;-9.384;2023-06-14T00:01:59;17.15;;;3.15;;
60917;SDS011;46792;38.854;-9.384;2023-06-14T00:04:00;13.48;;;2.78;;
60917;SDS011;46792;38.854;-9.384;2023-06-14T00:06:23;10.02;;;2.95;;
60917;SDS011;46792;38.854;-9.384;2023-06-14T00:08:43;9.63;;;2.40;;
60917;SDS011;46792;38.854;-9.384;2023-06-14T00:13:40;14.27;;;2.67;;
60917;SDS011;46792;38.854;-9.384;2023-06-14T00:15:40;7.50;;;2.67;;
60917;SDS011;46792;38.854;-9.384;2023-06-14T00:17:41;6.55;;;2.72;;
60917;SDS011;46792;38.854;-9.384;2023-06-14T00:19:41;8.63;;;2.28;;
60917;SDS011;46792;38.854;-9.384;2023-06-14T00:26:20;4.60;;;2.42;;
60917;SDS011;46792;38.854;-9.384;2023-06-14T00:28:21;12.20;;;2.75;;
60917;SDS011;46792;38.854;-9.384;2023-06-14T00:33:19;6.60;;;2.85;;
60917;SDS011;46792;38.854;-9.384;2023-06-14T00:35:19;8.57;;;3.20;;
60917;SDS011;46792;38.854;-9.384;2023-06-14T00:37:20;9.77;;;2.88;;
60917;SDS011;46792;38.854;-9.384;2023-06-14T00:39:20;6.65;;;2.92;;
60917;SDS011;46792;38.854;-9.384;2023-06-14T00:41:39;10.50;;;3.20;;
60917;SDS011;46792;38.854;-9.384;2023-06-14T00:43:40;12.30;;;3.78;;
60917;SDS011;46792;38.854;-9.384;2023-06-14T00:45:40;9.07;;;3.60;;
60917;SDS011;46792;38.854;-9.384;2023-06-14T00:47:41;13.85;;;3.95;;
60917;SDS011;46792;38.854;-9.384;2023-06-14T00:49:52;16.70;;;3.65;;
60917;SDS011;46792;38.854;-9.384;2023-06-14T00:54:12;7.20;;;2.83;;
60917;SDS011;46792;38.854;-9.384;2023-06-14T00:56:13;11.20;;;3.85;;
60917;SDS011;46792;38.854;-9.384;2023-06-14T00:58:15;13.15;;;3.30;;
60917;SDS011;46792;38.854;-9.384;2023-06-14T01:00:37;11.32;;;3.55;;
60917;SDS011;46792;38.854;-9.384;2023-06-14T01:02:56;14.00;;;3.88;;
60917;SDS011;46792;38.854;-9.384;2023-06-14T01:04:57;17.50;;;4.55;;
60917;SDS011;46792;38.854;-9.384;2023-06-14T01:09:09;11.32;;;3.50;;
60917;SDS011;46792;38.854;-9.384;2023-06-14T01:11:14;8.18;;;3.20;;
60917;SDS011;46792;38.854;-9.384;2023-06-14T01:13:24;10.25;;;3.28;;
60917;SDS011;46792;38.854;-9.384;2023-06-14T01:15:29;9.38;;;2.92;;
60917;SDS011;46792;38.854;-9.384;2023-06-14T01:17:29;12.27;;;3.88;;
60917;SDS011;46792;38.854;-9.384;2023-06-14T01:19:32;12.70;;;3.10;;
60917;SDS011;46792;38.854;-9.384;2023-06-14T01:21:33;11.70;;;2.95;;
60917;SDS011;46792;38.854;-9.384;2023-06-14T01:23:42;12.05;;;3.50;;
60917;SDS011;46792;38.854;-9.384;2023-06-14T01:25:42;12.18;;;3.65;;
60917;SDS011;46792;38.854;-9.384;2023-06-14T01:27:45;10.40;;;3.70;;
60917;SDS011;46792;38.854;-9.384;2023-06-14T01:29:46;17.45;;;3.53;;
60917;SDS011;46792;38.854;-9.384;2023-06-14T01:31:49;7.00;;;3.17;;
60917;SDS011;46792;38.854;-9.384;2023-06-14T01:33:50;8.40;;;2.83;;
60917;SDS011;46792;38.854;-9.384;2023-06-14T01:35:51;12.40;;;3.15;;
60917;SDS011;46792;38.854;-9.384;2023-06-14T01:37:52;5.25;;;2.90;;
60917;SDS011;46792;38.854;-9.384;2023-06-14T01:39:53;10.85;;;3.72;;
60917;SDS011;46792;38.854;-9.384;2023-06-14T01:42:12;12.95;;;2.97;;
60917;SDS011;46792;38.854;-9.384;2023-06-14T01:44:32;8.30;;;2.60;;
60917;SDS011;46792;38.854;-9.384;2023-06-14T01:46:36;10.30;;;3.38;;
60917;SDS011;46792;38.854;-9.384;2023-06-14T01:48:36;9.73;;;3.08;;
60917;SDS011;46792;38.854;-9.384;2023-06-14T01:50:37;14.20;;;3.38;;
60917;SDS011;46792;38.854;-9.384;2023-06-14T01:52:38;12.07;;;2.85;;
60917;SDS011;46792;38.854;-9.384;2023-06-14T01:54:57;8.73;;;2.65;;
60917;SDS011;46792;38.854;-9.384;2023-06-14T01:56:58;10.50;;;2.85;;
60917;SDS011;46792;38.854;-9.384;2023-06-14T01:58:58;9.48;;;2.95;;
60917;SDS011;46792;38.854;-9.384;2023-06-14T02:00:59;16.25;;;3.42;;
60917;SDS011;46792;38.854;-9.384;2023-06-14T02:03:02;12.90;;;3.08;;
60917;SDS011;46792;38.854;-9.384;2023-06-14T02:05:09;10.90;;;3.55;;
60917;SDS011;46792;38.854;-9.384;2023-06-14T02:07:10;11.13;;;2.92;;
60917;SDS011;46792;38.854;-9.384;2023-06-14T02:09:10;10.32;;;3.50;;
60917;SDS011;46792;38.854;-9.384;2023-06-14T02:11:11;14.20;;;3.00;;
60917;SDS011;46792;38.854;-9.384;2023-06-14T02:13:11;7.85;;;2.63;;
60917;SDS011;46792;38.854;-9.384;2023-06-14T02:15:13;8.68;;;3.10;;
60917;SDS011;46792;38.854;-9.384;2023-06-14T02:17:19;10.13;;;3.20;;
60917;SDS011;46792;38.854;-9.384;2023-06-14T02:19:20;20.67;;;3.80;;
60917;SDS011;46792;38.854;-9.384;2023-06-14T02:21:21;5.13;;;2.72;;
60917;SDS011;46792;38.854;-9.384;2023-06-14T02:23:40;11.93;;;3.15;;
60917;SDS011;46792;38.854;-9.384;2023-06-14T02:25:41;15.52;;;4.38;;
60917;SDS011;46792;38.854;-9.384;2023-06-14T02:27:43;15.82;;;3.28;;
60917;SDS011;46792;38.854;-9.384;2023-06-14T02:32:06;11.60;;;3.83;;
60917;SDS011;46792;38.854;-9.384;2023-06-14T02:34:07;7.43;;;2.92;;
60917;SDS011;46792;38.854;-9.384;2023-06-14T02:36:10;8.90;;;3.10;;
60917;SDS011;46792;38.854;-9.384;2023-06-14T02:38:29;12.30;;;3.03;;
60917;SDS011;46792;38.854;-9.384;2023-06-14T02:40:48;10.27;;;3.97;;
60917;SDS011;46792;38.854;-9.384;2023-06-14T02:45:07;15.55;;;3.40;;
60917;SDS011;46792;38.854;-9.384;2023-06-14T02:47:08;15.73;;;3.33;;
60917;SDS011;46792;38.854;-9.384;2023-06-14T02:49:09;17.27;;;3.58;;
60917;SDS011;46792;38.854;-9.384;2023-06-14T02:51:11;7.68;;;3.25;;
60917;SDS011;46792;38.854;-9.384;2023-06-14T02:53:13;13.07;;;3.92;;
60917;SDS011;46792;38.854;-9.384;2023-06-14T02:55:32;11.43;;;3.20;;
60917;SDS011;46792;38.854;-9.384;2023-06-14T02:57:50;9.57;;;3.08;;
60917;SDS011;46792;38.854;-9.384;2023-06-14T02:59:53;14.77;;;3.35;;
60917;SDS011;46792;38.854;-9.384;2023-06-14T03:01:54;10.77;;;3.08;;
60917;SDS011;46792;38.854;-9.384;2023-06-14T03:03:55;12.43;;;3.40;;
60917;SDS011;46792;38.854;-9.384;2023-06-14T03:06:14;8.80;;;3.15;;
60917;SDS011;46792;38.854;-9.384;2023-06-14T03:08:23;12.27;;;3.50;;
60917;SDS011;46792;38.854;-9.384;2023-06-14T03:10:28;9.43;;;2.78;;
60917;SDS011;46792;38.854;-9.384;2023-06-14T03:15:07;8.75;;;3.33;;
60917;SDS011;46792;38.854;-9.384;2023-06-14T03:17:11;7.90;;;3.00;;
60917;SDS011;46792;38.854;-9.384;2023-06-14T03:19:31;7.95;;;3.30;;
60917;SDS011;46792;38.854;-9.384;2023-06-14T03:21:32;10.27;;;3.05;;
60917;SDS011;46792;38.854;-9.384;2023-06-14T03:25:38;8.60;;;2.83;;
60917;SDS011;46792;38.854;-9.384;2023-06-14T03:27:40;12.20;;;4.57;;
60917;SDS011;46792;38.854;-9.384;2023-06-14T03:34:19;9.13;;;3.08;;
60917;SDS011;46792;38.854;-9.384;2023-06-14T03:36:20;11.25;;;3.28;;
60917;SDS011;46792;38.854;-9.384;2023-06-14T03:38:20;12.05;;;2.42;;
60917;SDS011;46792;38.854;-9.384;2023-06-14T03:42:58;7.97;;;3.03;;
60917;SDS011;46792;38.854;-9.384;2023-06-14T03:44:59;11.27;;;2.88;;
60917;SDS011;46792;38.854;-9.384;2023-06-14T03:47:01;15.13;;;5.25;;
60917;SDS011;46792;38.854;-9.384;2023-06-14T03:49:02;10.30;;;2.90;;
60917;SDS011;46792;38.854;-9.384;2023-06-14T03:51:12;11.30;;;3.00;;
60917;SDS011;46792;38.854;-9.384;2023-06-14T03:53:13;7.53;;;2.60;;
60917;SDS011;46792;38.854;-9.384;2023-06-14T03:55:19;7.57;;;2.75;;
60917;SDS011;46792;38.854;-9.384;2023-06-14T03:57:38;10.70;;;3.33;;
60917;SDS011;46792;38.854;-9.384;2023-06-14T03:59:43;9.63;;;2.60;;
60917;SDS011;46792;38.854;-9.384;2023-06-14T04:01:44;7.88;;;2.90;;
60917;SDS011;46792;38.854;-9.384;2023-06-14T04:03:48;6.88;;;2.65;;
60917;SDS011;46792;38.854;-9.384;2023-06-14T04:05:49;6.63;;;3.08;;
60917;SDS011;46792;38.854;-9.384;2023-06-14T04:07:51;9.75;;;3.00;;
60917;SDS011;46792;38.854;-9.384;2023-06-14T04:09:52;13.27;;;3.25;;
60917;SDS011;46792;38.854;-9.384;2023-06-14T04:11:52;10.57;;;3.90;;
60917;SDS011;46792;38.854;-9.384;2023-06-14T04:13:53;7.25;;;3.00;;
60917;SDS011;46792;38.854;-9.384;2023-06-14T04:15:54;7.22;;;3.00;;
60917;SDS011;46792;38.854;-9.384;2023-06-14T04:18:01;7.70;;;3.42;;
60917;SDS011;46792;38.854;-9.384;2023-06-14T04:20:02;10.30;;;3.17;;
60917;SDS011;46792;38.854;-9.384;2023-06-14T04:22:24;7.55;;;2.80;;
60917;SDS011;46792;38.854;-9.384;2023-06-14T04:24:24;11.20;;;3.70;;
60917;SDS011;46792;38.854;-9.384;2023-06-14T04:26:32;9.77;;;3.90;;
60917;SDS011;46792;38.854;-9.384;2023-06-14T04:28:52;23.10;;;4.45;;
60917;SDS011;46792;38.854;-9.384;2023-06-14T04:30:53;4.95;;;3.13;;
60917;SDS011;46792;38.854;-9.384;2023-06-14T04:32:54;8.15;;;3.05;;
60917;SDS011;46792;38.854;-9.384;2023-06-14T04:34:56;5.10;;;2.80;;
60917;SDS011;46792;38.854;-9.384;2023-06-14T04:37:15;4.13;;;2.60;;
60917;SDS011;46792;38.854;-9.384;2023-06-14T04:39:54;10.98;;;3.35;;
60917;SDS011;46792;38.854;-9.384;2023-06-14T04:41:56;8.50;;;3.50;;
60917;SDS011;46792;38.854;-9.384;2023-06-14T04:43:58;8.02;;;3.33;;
60917;SDS011;46792;38.854;-9.384;2023-06-14T04:46:03;12.57;;;3.30;;
60917;SDS011;46792;38.854;-9.384;2023-06-14T04:48:06;9.27;;;3.33;;
60917;SDS011;46792;38.854;-9.384;2023-06-14T04:55:22;9.77;;;3.17;;
60917;SDS011;46792;38.854;-9.384;2023-06-14T04:57:23;14.57;;;3.65;;
60917;SDS011;46792;38.854;-9.384;2023-06-14T04:59:28;8.98;;;2.90;;
60917;SDS011;46792;38.854;-9.384;2023-06-14T05:06:12;5.55;;;2.63;;
60917;SDS011;46792;38.854;-9.384;2023-06-14T05:08:13;10.68;;;4.07;;
60917;SDS011;46792;38.854;-9.384;2023-06-14T05:10:13;10.80;;;3.10;;
60917;SDS011;46792;38.854;-9.384;2023-06-14T05:12:14;16.10;;;3.80;;
60917;SDS011;46792;38.854;-9.384;2023-06-14T05:14:19;9.93;;;2.90;;
60917;SDS011;46792;38.854;-9.384;2023-06-14T05:16:20;5.57;;;2.90;;
60917;SDS011;46792;38.854;-9.384;2023-06-14T05:18:23;7.40;;;3.42;;
60917;SDS011;46792;38.854;-9.384;2023-06-14T05:20:25;9.45;;;3.65;;
60917;SDS011;46792;38.854;-9.384;2023-06-14T05:22:26;7.15;;;2.83;;
60917;SDS011;46792;38.854;-9.384;2023-06-14T05:24:27;16.63;;;2.92;;
60917;SDS011;46792;38.854;-9.384;2023-06-14T05:26:48;7.10;;;2.95;;
60917;SDS011;46792;38.854;-9.384;2023-06-14T05:29:07;9.52;;;2.92;;
60917;SDS011;46792;38.854;-9.384;2023-06-14T05:35:46;10.48;;;3.08;;
60917;SDS011;46792;38.854;-9.384;2023-06-14T05:37:47;7.25;;;3.08;;
60917;SDS011;46792;38.854;-9.384;2023-06-14T05:39:48;13.45;;;3.50;;
60917;SDS011;46792;38.854;-9.384;2023-06-14T05:42:07;11.80;;;3.70;;
60917;SDS011;46792;38.854;-9.384;2023-06-14T05:44:26;7.63;;;3.78;;
60917;SDS011;46792;38.854;-9.384;2023-06-14T05:46:44;7.25;;;2.90;;
60917;SDS011;46792;38.854;-9.384;2023-06-14T05:48:45;7.15;;;3.00;;
60917;SDS011;46792;38.854;-9.384;2023-06-14T05:50:45;8.30;;;3.05;;
60917;SDS011;46792;38.854;-9.384;2023-06-14T05:55:23;8.68;;;3.30;;
60917;SDS011;46792;38.854;-9.384;2023-06-14T05:57:24;10.40;;;3.78;;
60917;SDS011;46792;38.854;-9.384;2023-06-14T05:59:24;7.43;;;3.42;;
60917;SDS011;46792;38.854;-9.384;2023-06-14T06:01:25;10.02;;;3.40;;
60917;SDS011;46792;38.854;-9.384;2023-06-14T06:03:26;9.73;;;3.08;;
60917;SDS011;46792;38.854;-9.384;2023-06-14T06:05:29;13.15;;;3.63;;
60917;SDS011;46792;38.854;-9.384;2023-06-14T06:07:29;10.07;;;3.35;;
60917;SDS011;46792;38.854;-9.384;2023-06-14T06:09:30;11.38;;;3.10;;
60917;SDS011;46792;38.854;-9.384;2023-06-14T06:11:31;9.85;;;2.92;;
60917;SDS011;46792;38.854;-9.384;2023-06-14T06:13:31;10.90;;;2.40;;
60917;SDS011;46792;38.854;-9.384;2023-06-14T06:15:32;7.90;;;3.08;;
60917;SDS011;46792;38.854;-9.384;2023-06-14T06:17:32;9.52;;;3.03;;
60917;SDS011;46792;38.854;-9.384;2023-06-14T06:19:33;5.40;;;3.00;;
60917;SDS011;46792;38.854;-9.384;2023-06-14T06:21:33;7.00;;;3.35;;
60917;SDS011;46792;38.854;-9.384;2023-06-14T06:23:34;6.15;;;3.10;;
60917;SDS011;46792;38.854;-9.384;2023-06-14T06:25:35;5.75;;;2.20;;
60917;SDS011;46792;38.854;-9.384;2023-06-14T06:27:54;8.82;;;2.65;;
60917;SDS011;46792;38.854;-9.384;2023-06-14T06:29:56;4.25;;;2.88;;
60917;SDS011;46792;38.854;-9.384;2023-06-14T06:31:57;8.18;;;3.00;;
60917;SDS011;46792;38.854;-9.384;2023-06-14T06:33:57;13.32;;;2.88;;
60917;SDS011;46792;38.854;-9.384;2023-06-14T06:36:19;8.20;;;3.22;;
60917;SDS011;46792;38.854;-9.384;2023-06-14T06:38:20;6.27;;;3.00;;
60917;SDS011;46792;38.854;-9.384;2023-06-14T06:40:39;11.10;;;3.08;;
60917;SDS011;46792;38.854;-9.384;2023-06-14T06:42:59;7.93;;;3.55;;
60917;SDS011;46792;38.854;-9.384;2023-06-14T06:45:01;12.20;;;3.17;;
60917;SDS011;46792;38.854;-9.384;2023-06-14T06:47:02;8.05;;;2.78;;
60917;SDS011;46792;38.854;-9.384;2023-06-14T06:49:02;9.93;;;3.33;;
60917;SDS011;46792;38.854;-9.384;2023-06-14T06:51:03;15.70;;;3.28;;
60917;SDS011;46792;38.854;-9.384;2023-06-14T06:53:03;7.30;;;2.60;;
60917;SDS011;46792;38.854;-9.384;2023-06-14T06:55:04;6.72;;;3.20;;
60917;SDS011;46792;38.854;-9.384;2023-06-14T06:57:23;6.85;;;3.20;;
60917;SDS011;46792;38.854;-9.384;2023-06-14T06:59:24;17.23;;;4.50;;
60917;SDS011;46792;38.854;-9.384;2023-06-14T07:01:24;8.77;;;2.83;;
60917;SDS011;46792;38.854;-9.384;2023-06-14T07:03:26;10.00;;;2.45;;
60917;SDS011;46792;38.854;-9.384;2023-06-14T07:05:27;8.20;;;2.65;;
60917;SDS011;46792;38.854;-9.384;2023-06-14T07:07:45;7.47;;;2.60;;
60917;SDS011;46792;38.854;-9.384;2023-06-14T07:09:46;8.75;;;2.75;;
60917;SDS011;46792;38.854;-9.384;2023-06-14T07:11:47;11.75;;;3.22;;
60917;SDS011;46792;38.854;-9.384;2023-06-14T07:13:47;13.00;;;2.90;;
60917;SDS011;46792;38.854;-9.384;2023-06-14T07:16:06;8.57;;;2.80;;
60917;SDS011;46792;38.854;-9.384;2023-06-14T07:18:07;9.25;;;3.35;;
60917;SDS011;46792;38.854;-9.384;2023-06-14T07:20:08;8.38;;;2.10;;
60917;SDS011;46792;38.854;-9.384;2023-06-14T07:22:11;3.58;;;2.10;;
60917;SDS011;46792;38.854;-9.384;2023-06-14T07:24:12;9.25;;;2.22;;
60917;SDS011;46792;38.854;-9.384;2023-06-14T07:26:12;9.32;;;2.58;;
60917;SDS011;46792;38.854;-9.384;2023-06-14T07:28:13;7.45;;;2.40;;
60917;SDS011;46792;38.854;-9.384;2023-06-14T07:30:13;7.35;;;2.30;;
60917;SDS011;46792;38.854;-9.384;2023-06-14T07:32:14;7.45;;;3.28;;
60917;SDS011;46792;38.854;-9.384;2023-06-14T07:34:14;5.50;;;2.30;;
60917;SDS011;46792;38.854;-9.384;2023-06-14T07:36:15;7.43;;;1.98;;
60917;SDS011;46792;38.854;-9.384;2023-06-14T07:38:15;11.30;;;3.20;;
60917;SDS011;46792;38.854;-9.384;2023-06-14T07:40:16;4.20;;;1.98;;
60917;SDS011;46792;38.854;-9.384;2023-06-14T07:42:19;9.97;;;2.40;;
60917;SDS011;46792;38.854;-9.384;2023-06-14T07:44:20;7.95;;;2.17;;
60917;SDS011;46792;38.854;-9.384;2023-06-14T07:46:20;3.35;;;1.60;;
60917;SDS011;46792;38.854;-9.384;2023-06-14T07:48:21;6.00;;;2.05;;
60917;SDS011;46792;38.854;-9.384;2023-06-14T07:50:21;5.63;;;2.13;;
60917;SDS011;46792;38.854;-9.384;2023-06-14T07:52:22;7.20;;;1.80;;
60917;SDS011;46792;38.854;-9.384;2023-06-14T07:54:22;9.77;;;2.30;;
60917;SDS011;46792;38.854;-9.384;2023-06-14T07:56:44;10.00;;;2.05;;
60917;SDS011;46792;38.854;-9.384;2023-06-14T07:58:45;6.75;;;2.08;;
60917;SDS011;46792;38.854;-9.384;2023-06-14T08:00:45;5.30;;;1.58;;
60917;SDS011;46792;38.854;-9.384;2023-06-14T08:02:47;2.40;;;2.10;;
60917;SDS011;46792;38.854;-9.384;2023-06-14T08:04:47;4.18;;;1.70;;
60917;SDS011;46792;38.854;-9.384;2023-06-14T08:06:48;9.38;;;1.67;;
60917;SDS011;46792;38.854;-9.384;2023-06-14T08:08:49;7.00;;;1.95;;
60917;SDS011;46792;38.854;-9.384;2023-06-14T08:13:08;10.07;;;1.70;;
60917;SDS011;46792;38.854;-9.384;2023-06-14T08:15:10;9.02;;;2.13;;
60917;SDS011;46792;38.854;-9.384;2023-06-14T08:17:10;3.85;;;1.48;;
60917;SDS011;46792;38.854;-9.384;2023-06-14T08:19:11;4.63;;;1.52;;
60917;SDS011;46792;38.854;-9.384;2023-06-14T08:21:30;3.30;;;1.65;;
60917;SDS011;46792;38.854;-9.384;2023-06-14T08:23:52;2.80;;;1.50;;
60917;SDS011;46792;38.854;-9.384;2023-06-14T08:25:53;2.75;;;1.60;;
60917;SDS011;46792;38.854;-9.384;2023-06-14T08:27:53;2.70;;;1.83;;
60917;SDS011;46792;38.854;-9.384;2023-06-14T08:29:54;8.13;;;1.85;;
60917;SDS011;46792;38.854;-9.384;2023-06-14T08:31:54;3.08;;;1.98;;
60917;SDS011;46792;38.854;-9.384;2023-06-14T08:33:55;4.75;;;2.03;;
60917;SDS011;46792;38.854;-9.384;2023-06-14T08:35:55;7.95;;;1.52;;
60917;SDS011;46792;38.854;-9.384;2023-06-14T08:37:56;6.50;;;2.08;;
60917;SDS011;46792;38.854;-9.384;2023-06-14T08:39:56;11.07;;;2.10;;
60917;SDS011;46792;38.854;-9.384;2023-06-14T08:41:56;3.72;;;1.80;;
60917;SDS011;46792;38.854;-9.384;2023-06-14T08:43:57;5.13;;;1.70;;
60917;SDS011;46792;38.854;-9.384;2023-06-14T08:46:00;8.25;;;1.92;;
60917;SDS011;46792;38.854;-9.384;2023-06-14T08:48:02;7.77;;;1.90;;
60917;SDS011;46792;38.854;-9.384;2023-06-14T08:52:23;4.75;;;1.73;;
60917;SDS011;46792;38.854;-9.384;2023-06-14T08:54:30;7.75;;;2.03;;
60917;SDS011;46792;38.854;-9.384;2023-06-14T08:56:32;8.45;;;1.98;;
60917;SDS011;46792;38.854;-9.384;2023-06-14T08:58:34;5.57;;;1.40;;
60917;SDS011;46792;38.854;-9.384;2023-06-14T09:00:34;5.30;;;1.75;;
60917;SDS011;46792;38.854;-9.384;2023-06-14T09:02:37;4.18;;;1.85;;
60917;SDS011;46792;38.854;-9.384;2023-06-14T09:04:38;3.97;;;1.75;;
60917;SDS011;46792;38.854;-9.384;2023-06-14T09:06:39;2.28;;;1.38;;
60917;SDS011;46792;38.854;-9.384;2023-06-14T09:08:41;6.15;;;1.65;;
60917;SDS011;46792;38.854;-9.384;2023-06-14T09:10:42;3.90;;;1.77;;
60917;SDS011;46792;38.854;-9.384;2023-06-14T09:12:42;4.72;;;1.67;;
60917;SDS011;46792;38.854;-9.384;2023-06-14T09:14:43;3.58;;;1.55;;
60917;SDS011;46792;38.854;-9.384;2023-06-14T09:16:44;5.88;;;1.65;;
60917;SDS011;46792;38.854;-9.384;2023-06-14T09:18:45;10.30;;;1.75;;
60917;SDS011;46792;38.854;-9.384;2023-06-14T09:20:47;7.75;;;1.35;;
60917;SDS011;46792;38.854;-9.384;2023-06-14T09:22:48;3.72;;;1.55;;
60917;SDS011;46792;38.854;-9.384;2023-06-14T09:24:49;7.05;;;1.73;;
60917;SDS011;46792;38.854;-9.384;2023-06-14T09:26:52;10.77;;;1.67;;
60917;SDS011;46792;38.854;-9.384;2023-06-14T09:28:53;6.53;;;1.73;;
60917;SDS011;46792;38.854;-9.384;2023-06-14T09:30:55;10.63;;;1.90;;
60917;SDS011;46792;38.854;-9.384;2023-06-14T09:32:56;3.38;;;1.30;;
60917;SDS011;46792;38.854;-9.384;2023-06-14T09:34:56;5.72;;;1.50;;
60917;SDS011;46792;38.854;-9.384;2023-06-14T09:36:57;10.38;;;2.67;;
60917;SDS011;46792;38.854;-9.384;2023-06-14T09:38:58;5.18;;;1.65;;
60917;SDS011;46792;38.854;-9.384;2023-06-14T09:40:59;6.85;;;1.63;;
60917;SDS011;46792;38.854;-9.384;2023-06-14T09:42:59;6.70;;;1.95;;
60917;SDS011;46792;38.854;-9.384;2023-06-14T09:45:00;3.15;;;1.45;;
60917;SDS011;46792;38.854;-9.384;2023-06-14T09:47:00;8.18;;;1.83;;
60917;SDS011;46792;38.854;-9.384;2023-06-14T09:49:03;2.95;;;1.30;;
60917;SDS011;46792;38.854;-9.384;2023-06-14T09:51:03;6.07;;;1.55;;
60917;SDS011;46792;38.854;-9.384;2023-06-14T09:53:06;3.97;;;1.48;;
60917;SDS011;46792;38.854;-9.384;2023-06-14T09:55:09;14.82;;;2.17;;
60917;SDS011;46792;38.854;-9.384;2023-06-14T09:59:12;1.63;;;1.20;;
60917;SDS011;46792;38.854;-9.384;2023-06-14T10:01:13;2.95;;;1.58;;
60917;SDS011;46792;38.854;-9.384;2023-06-14T10:05:34;4.97;;;1.38;;
60917;SDS011;46792;38.854;-9.384;2023-06-14T10:07:39;7.78;;;1.48;;
60917;SDS011;46792;38.854;-9.384;2023-06-14T10:09:40;3.13;;;1.20;;
60917;SDS011;46792;38.854;-9.384;2023-06-14T10:11:44;3.10;;;1.70;;
60917;SDS011;46792;38.854;-9.384;2023-06-14T10:14:05;1.52;;;1.08;;
60917;SDS011;46792;38.854;-9.384;2023-06-14T10:23:03;3.38;;;1.67;;
60917;SDS011;46792;38.854;-9.384;2023-06-14T10:25:06;7.03;;;1.45;;
60917;SDS011;46792;38.854;-9.384;2023-06-14T10:27:08;4.60;;;1.75;;
60917;SDS011;46792;38.854;-9.384;2023-06-14T10:29:30;5.10;;;1.83;;
60917;SDS011;46792;38.854;-9.384;2023-06-14T10:31:43;2.90;;;1.45;;
60917;SDS011;46792;38.854;-9.384;2023-06-14T10:33:53;6.00;;;1.42;;
60917;SDS011;46792;38.854;-9.384;2023-06-14T10:38:09;16.75;;;2.30;;
60917;SDS011;46792;38.854;-9.384;2023-06-14T10:40:09;6.32;;;1.38;;
60917;SDS011;46792;38.854;-9.384;2023-06-14T10:42:32;4.55;;;1.35;;
60917;SDS011;46792;38.854;-9.384;2023-06-14T10:47:00;3.83;;;1.70;;
60917;SDS011;46792;38.854;-9.384;2023-06-14T10:49:01;6.57;;;1.70;;
60917;SDS011;46792;38.854;-9.384;2023-06-14T10:51:03;8.25;;;1.60;;
60917;SDS011;46792;38.854;-9.384;2023-06-14T10:53:21;10.15;;;1.90;;
60917;SDS011;46792;38.854;-9.384;2023-06-14T10:55:22;7.45;;;1.75;;
60917;SDS011;46792;38.854;-9.384;2023-06-14T10:57:22;5.13;;;1.35;;
60917;SDS011;46792;38.854;-9.384;2023-06-14T10:59:24;8.55;;;1.10;;
60917;SDS011;46792;38.854;-9.384;2023-06-14T11:03:43;7.07;;;1.48;;
60917;SDS011;46792;38.854;-9.384;2023-06-14T11:12:22;3.70;;;1.20;;
60917;SDS011;46792;38.854;-9.384;2023-06-14T11:14:23;4.40;;;1.20;;
60917;SDS011;46792;38.854;-9.384;2023-06-14T11:16:25;10.60;;;1.30;;
60917;SDS011;46792;38.854;-9.384;2023-06-14T11:18:26;10.43;;;1.42;;
60917;SDS011;46792;38.854;-9.384;2023-06-14T11:20:29;2.53;;;1.10;;
60917;SDS011;46792;38.854;-9.384;2023-06-14T11:22:46;3.15;;;1.50;;
60917;SDS011;46792;38.854;-9.384;2023-06-14T11:24:47;3.97;;;1.48;;
60917;SDS011;46792;38.854;-9.384;2023-06-14T11:26:47;6.65;;;1.45;;
60917;SDS011;46792;38.854;-9.384;2023-06-14T11:28:48;5.40;;;1.20;;
60917;SDS011;46792;38.854;-9.384;2023-06-14T11:30:48;2.65;;;1.65;;
60917;SDS011;46792;38.854;-9.384;2023-06-14T11:32:50;7.35;;;1.60;;
60917;SDS011;46792;38.854;-9.384;2023-06-14T11:34:50;2.63;;;1.30;;
60917;SDS011;46792;38.854;-9.384;2023-06-14T11:36:51;4.28;;;1.65;;
60917;SDS011;46792;38.854;-9.384;2023-06-14T11:38:57;4.25;;;1.70;;
60917;SDS011;46792;38.854;-9.384;2023-06-14T11:40:59;5.68;;;1.50;;
60917;SDS011;46792;38.854;-9.384;2023-06-14T11:43:00;4.68;;;1.38;;
60917;SDS011;46792;38.854;-9.384;2023-06-14T11:45:19;5.75;;;1.55;;
60917;SDS011;46792;38.854;-9.384;2023-06-14T11:47:20;3.88;;;1.25;;
60917;SDS011;46792;38.854;-9.384;2023-06-14T11:49:20;4.90;;;1.63;;
60917;SDS011;46792;38.854;-9.384;2023-06-14T11:53:40;5.82;;;1.60;;
60917;SDS011;46792;38.854;-9.384;2023-06-14T11:55:42;7.22;;;2.08;;
60917;SDS011;46792;38.854;-9.384;2023-06-14T11:57:46;5.55;;;1.38;;
60917;SDS011;46792;38.854;-9.384;2023-06-14T11:59:46;5.03;;;1.63;;
60917;SDS011;46792;38.854;-9.384;2023-06-14T12:01:47;7.07;;;1.30;;
60917;SDS011;46792;38.854;-9.384;2023-06-14T12:03:48;3.40;;;1.23;;
60917;SDS011;46792;38.854;-9.384;2023-06-14T12:05:49;7.10;;;1.42;;
60917;SDS011;46792;38.854;-9.384;2023-06-14T12:07:50;5.40;;;1.67;;
60917;SDS011;46792;38.854;-9.384;2023-06-14T12:11:59;12.98;;;1.60;;
60917;SDS011;46792;38.854;-9.384;2023-06-14T12:14:00;5.85;;;1.52;;
60917;SDS011;46792;38.854;-9.384;2023-06-14T12:16:01;4.53;;;1.50;;
60917;SDS011;46792;38.854;-9.384;2023-06-14T12:18:05;4.35;;;1.40;;
60917;SDS011;46792;38.854;-9.384;2023-06-14T12:20:07;5.38;;;1.98;;
60917;SDS011;46792;38.854;-9.384;2023-06-14T12:22:14;5.60;;;2.05;;
60917;SDS011;46792;38.854;-9.384;2023-06-14T12:24:14;6.20;;;1.70;;
60917;SDS011;46792;38.854;-9.384;2023-06-14T12:26:16;5.63;;;1.60;;
60917;SDS011;46792;38.854;-9.384;2023-06-14T12:28:39;6.65;;;1.58;;
60917;SDS011;46792;38.854;-9.384;2023-06-14T12:30:40;4.85;;;1.73;;
60917;SDS011;46792;38.854;-9.384;2023-06-14T12:32:40;11.63;;;1.80;;
60917;SDS011;46792;38.854;-9.384;2023-06-14T12:34:41;5.95;;;2.30;;
60917;SDS011;46792;38.854;-9.384;2023-06-14T12:36:41;7.18;;;1.95;;
60917;SDS011;46792;38.854;-9.384;2023-06-14T12:38:44;7.38;;;2.05;;
60917;SDS011;46792;38.854;-9.384;2023-06-14T12:40:46;4.25;;;1.92;;
60917;SDS011;46792;38.854;-9.384;2023-06-14T12:42:47;16.67;;;1.67;;
60917;SDS011;46792;38.854;-9.384;2023-06-14T12:44:47;4.60;;;1.60;;
60917;SDS011;46792;38.854;-9.384;2023-06-14T12:46:48;7.28;;;1.75;;
60917;SDS011;46792;38.854;-9.384;2023-06-14T12:48:48;5.57;;;1.73;;
60917;SDS011;46792;38.854;-9.384;2023-06-14T12:50:48;6.57;;;1.50;;
60917;SDS011;46792;38.854;-9.384;2023-06-14T12:52:49;5.18;;;1.80;;
60917;SDS011;46792;38.854;-9.384;2023-06-14T12:54:49;7.57;;;2.67;;
60917;SDS011;46792;38.854;-9.384;2023-06-14T12:56:50;4.32;;;1.48;;
60917;SDS011;46792;38.854;-9.384;2023-06-14T12:58:51;10.52;;;2.42;;
60917;SDS011;46792;38.854;-9.384;2023-06-14T13:01:10;5.22;;;1.60;;
60917;SDS011;46792;38.854;-9.384;2023-06-14T13:03:29;11.45;;;1.83;;
60917;SDS011;46792;38.854;-9.384;2023-06-14T13:05:29;5.60;;;1.70;;
60917;SDS011;46792;38.854;-9.384;2023-06-14T13:07:33;5.80;;;1.33;;
60917;SDS011;46792;38.854;-9.384;2023-06-14T13:09:33;8.23;;;1.85;;
60917;SDS011;46792;38.854;-9.384;2023-06-14T13:11:34;13.98;;;3.05;;
60917;SDS011;46792;38.854;-9.384;2023-06-14T13:13:34;10.18;;;1.25;;
60917;SDS011;46792;38.854;-9.384;2023-06-14T13:15:35;8.13;;;1.85;;
60917;SDS011;46792;38.854;-9.384;2023-06-14T13:17:35;4.05;;;1.75;;
60917;SDS011;46792;38.854;-9.384;2023-06-14T13:19:38;3.50;;;1.45;;
60917;SDS011;46792;38.854;-9.384;2023-06-14T13:21:57;5.22;;;1.73;;
60917;SDS011;46792;38.854;-9.384;2023-06-14T13:24:16;4.82;;;1.38;;
60917;SDS011;46792;38.854;-9.384;2023-06-14T13:26:35;3.42;;;1.42;;
60917;SDS011;46792;38.854;-9.384;2023-06-14T13:28:35;5.43;;;1.60;;
60917;SDS011;46792;38.854;-9.384;2023-06-14T13:30:36;2.33;;;1.40;;
60917;SDS011;46792;38.854;-9.384;2023-06-14T13:32:37;7.82;;;1.67;;
60917;SDS011;46792;38.854;-9.384;2023-06-14T13:34:37;4.03;;;1.20;;
60917;SDS011;46792;38.854;-9.384;2023-06-14T13:36:38;4.57;;;1.40;;